Terminal Aerodrome Forecast
Issued by NWS

Home | Current Version | Previous Version | Graphics & Text | Print | Product List | Glossary On
Versions: 1 2 3 4 5 6 7 8 9 10 11 12
750
FTUS43 KIWX 202327
TAFSBN
TAF
KSBN 202327Z 2100/2124 34010KT P6SM SCT200
     FM210130 06002KT P6SM BKN200
     FM211200 14005KT P6SM BKN200
     FM212100 36008KT P6SM BKN120=

USA.gov is the U.S. government's official web portal to all federal, state and local government web resources and services.